Time;durP1;ratioP1;P1;durP2;ratioP2;P2;SDS_P1;SDS_P2;PMS_P1;PMS_P2;Temp;Humidity;BMP_temperature;BMP_pressure;BME280_temperature;BME280_humidity;BME280_pressure;Samples;Min_cycle;Max_cycle;Signal;HPM_P1;HPM_P2
2022/04/27 10:40:32;;;;;;;6.18;2.90;;;15.60;85.60;;;;;;1201794;22;20361;-85
2022/04/27 10:43:46;;;;;;;7.03;2.13;;;15.70;85.80;;;;;;4974059;28;20066;-85
2022/04/27 10:46:38;;;;;;;4.50;2.25;;;15.90;85.20;;;;;;4955921;28;20039;-87
2022/04/27 10:49:41;;;;;;;6.38;2.22;;;16.00;84.90;;;;;;4975626;28;20021;-87
2022/04/27 10:52:09;;;;;;;3.78;2.13;;;16.20;84.70;;;;;;4976119;28;20049;-87
2022/04/27 10:57:33;;;;;;;6.50;1.95;;;16.30;84.60;;;;;;4993418;28;20037;-86
2022/04/27 11:00:28;;;;;;;5.78;2.10;;;16.40;84.20;;;;;;4977362;28;20030;-88
2022/04/27 11:03:19;;;;;;;6.75;2.72;;;16.50;83.80;;;;;;4975159;28;20014;-89
2022/04/27 11:05:59;;;;;;;5.03;2.15;;;16.60;83.30;;;;;;4977577;28;20062;-87
2022/04/27 11:08:59;;;;;;;5.90;2.60;;;16.70;82.50;;;;;;4959549;28;20030;-88
2022/04/27 11:11:30;;;;;;;4.47;1.88;;;16.70;81.20;;;;;;4953770;28;20081;-88
2022/04/27 11:14:28;;;;;;;;;;;;;;;;;;;;;
2022/04/27 11:16:54;;;;;;;5.72;2.45;;;16.80;80.40;;;;;;4966948;28;20109;-87
2022/04/27 11:19:20;;;;;;;5.57;2.30;;;16.90;80.00;;;;;;4977187;28;20118;-87
2022/04/27 11:21:48;;;;;;;5.18;2.10;;;16.90;79.50;;;;;;4959990;28;20073;-88
2022/04/27 11:24:45;;;;;;;;;;;;;;;;;;;;;
2022/04/27 11:27:33;;;;;;;4.78;2.50;;;17.00;79.20;;;;;;4995191;28;20033;-88
2022/04/27 11:30:04;;;;;;;7.10;2.22;;;17.00;78.50;;;;;;4995308;28;20109;-87
2022/04/27 11:32:30;;;;;;;6.78;2.40;;;17.10;78.20;;;;;;4977742;28;20035;-89
2022/04/27 11:35:01;;;;;;;5.10;2.30;;;17.00;76.50;;;;;;4979128;28;20029;-91
2022/04/27 11:37:36;;;;;;;5.53;2.28;;;17.00;76.00;;;;;;4981408;28;20033;-87
2022/04/27 11:40:18;;;;;;;6.90;2.70;;;17.00;75.60;;;;;;4998040;28;20458;-88
2022/04/27 11:43:32;;;;;;;6.88;2.38;;;17.00;75.50;;;;;;4979542;28;20553;-85
2022/04/27 11:46:41;;;;;;;6.97;2.50;;;16.90;74.80;;;;;;4980811;28;20030;-86
2022/04/27 11:49:35;;;;;;;6.15;2.65;;;16.90;75.20;;;;;;4981364;28;20533;-95
2022/04/27 11:52:46;;;;;;;;;;;;;;;;;;;;;
2022/04/27 12:16:36;;;;;;;5.50;2.58;;;17.60;73.50;;;;;;4953695;29;20499;-88
2022/04/27 12:23:09;;;;;;;;;;;;;;;;;;;;;
2022/04/27 12:26:45;;;;;;;6.53;2.53;;;18.00;71.20;;;;;;4959449;29;20549;-94
2022/04/27 12:29:53;;;;;;;5.47;2.50;;;18.00;71.20;;;;;;4939829;29;20483;-93
2022/04/27 12:33:04;;;;;;;6.75;2.72;;;18.10;71.80;;;;;;4944038;28;20078;-94
2022/04/27 12:39:22;;;;;;;;;;;;;;;;;;;;;
2022/04/27 12:45:24;;;;;;;6.53;2.70;;;18.50;69.90;;;;;;4998325;28;20065;-94
2022/04/27 12:51:35;;;;;;;;;;;;;;;;;;;;;
2022/04/27 13:05:03;;;;;;;;;;;;;;;;;;;;;
2022/04/27 13:07:48;;;;;;;;;;;;;;;;;;;;;
2022/04/27 13:13:50;;;;;;;;;;;;;;;;;;;;;
2022/04/27 13:16:55;;;;;;;5.25;2.80;;;18.90;65.40;;;;;;4999382;28;20109;-89
2022/04/27 13:19:45;;;;;;;6.40;2.90;;;19.00;65.60;;;;;;4967605;28;20461;-85
2022/04/27 13:22:38;;;;;;;5.57;2.83;;;19.10;65.40;;;;;;4995651;28;20061;-84
2022/04/27 13:25:14;;;;;;;6.10;3.08;;;19.10;64.80;;;;;;4972847;28;20117;-85
2022/04/27 13:28:01;;;;;;;7.00;3.20;;;19.10;64.70;;;;;;4979168;28;20038;-86
2022/04/27 13:30:44;;;;;;;;;;;;;;;;;;;;;
2022/04/27 13:33:16;;;;;;;6.28;3.65;;;19.20;65.00;;;;;;4979901;28;20049;-84
2022/04/27 13:35:58;;;;;;;5.85;2.90;;;19.30;64.20;;;;;;4978990;28;20023;-84
2022/04/27 13:38:27;;;;;;;6.72;3.10;;;19.30;63.10;;;;;;4979022;28;20036;-84
2022/04/27 13:41:06;;;;;;;5.70;2.60;;;19.40;62.90;;;;;;4978444;28;20033;-85
2022/04/27 13:43:32;;;;;;;6.03;2.90;;;19.40;63.40;;;;;;4960584;28;20051;-84
2022/04/27 13:46:11;;;;;;;5.70;2.67;;;19.50;63.20;;;;;;4974797;28;20101;-85
2022/04/27 13:48:46;;;;;;;6.68;2.78;;;19.40;62.10;;;;;;4959391;28;20035;-83
2022/04/27 13:51:17;;;;;;;5.25;3.10;;;19.50;62.50;;;;;;4976310;28;20062;-85
2022/04/27 13:53:48;;;;;;;5.20;2.80;;;19.50;62.80;;;;;;4975103;28;20029;-84
2022/04/27 13:56:14;;;;;;;5.75;2.47;;;19.60;62.80;;;;;;4974637;28;20023;-84
2022/04/27 13:58:42;;;;;;;3.47;2.40;;;19.70;62.90;;;;;;4973734;28;20027;-83
2022/04/27 14:01:17;;;;;;;8.38;2.95;;;19.70;62.60;;;;;;4958764;28;20038;-84
2022/04/27 14:03:55;;;;;;;7.20;3.30;;;19.80;61.60;;;;;;4975114;28;20493;-85
2022/04/27 14:06:24;;;;;;;10.10;3.75;;;19.80;61.40;;;;;;4974959;28;20019;-84
2022/04/27 14:08:55;;;;;;;5.28;2.30;;;19.80;61.20;;;;;;4974155;28;20474;-84
2022/04/27 14:14:08;;;;;;;9.10;3.30;;;19.90;62.00;;;;;;4976042;28;20045;-84
2022/04/27 14:19:23;;;;;;;5.63;2.58;;;20.00;61.50;;;;;;4961003;28;20107;-86
2022/04/27 14:22:27;;;;;;;7.20;2.60;;;20.00;60.00;;;;;;4974187;28;20177;-86
2022/04/27 14:25:19;;;;;;;4.82;2.30;;;20.00;60.30;;;;;;4954669;28;20035;-85
2022/04/27 14:28:27;;;;;;;5.45;2.60;;;20.00;60.10;;;;;;4957858;28;20027;-84
2022/04/27 14:30:55;;;;;;;5.25;2.70;;;20.10;59.40;;;;;;4955329;28;20111;-84
2022/04/27 14:33:26;;;;;;;6.15;2.83;;;20.10;59.90;;;;;;4957283;28;20169;-85
2022/04/27 14:36:20;;;;;;;5.72;2.40;;;20.10;59.70;;;;;;4973881;28;20042;-85
2022/04/27 14:38:57;;;;;;;6.63;2.50;;;20.20;59.70;;;;;;4957670;28;20035;-85
2022/04/27 14:41:36;;;;;;;;;;;;;;;;;;;;;
2022/04/27 14:44:20;;;;;;;5.90;2.60;;;20.20;59.60;;;;;;4979498;28;20046;-86
2022/04/27 14:46:47;;;;;;;4.95;2.47;;;20.20;59.60;;;;;;4995083;28;20508;-87
2022/04/27 14:49:18;;;;;;;5.65;2.97;;;20.20;59.40;;;;;;4976026;28;20044;-87
2022/04/27 14:51:46;;;;;;;5.13;2.47;;;20.20;58.20;;;;;;4993173;28;20034;-87
2022/04/27 14:54:15;;;;;;;5.40;2.35;;;20.20;58.20;;;;;;4977492;28;20122;-87
2022/04/27 14:56:45;;;;;;;4.82;2.60;;;20.20;58.00;;;;;;4961370;28;20114;-87
2022/04/27 14:59:13;;;;;;;7.18;2.60;;;20.10;57.70;;;;;;4977936;28;20023;-87
2022/04/27 15:01:52;;;;;;;5.50;2.42;;;20.10;57.70;;;;;;4961658;28;20027;-87
2022/04/27 15:04:18;;;;;;;5.22;2.60;;;20.10;57.30;;;;;;4977432;28;20034;-85
2022/04/27 15:06:49;;;;;;;5.93;2.90;;;20.10;57.90;;;;;;4994595;28;20050;-86
2022/04/27 15:09:15;;;;;;;4.45;2.50;;;20.10;58.50;;;;;;4978122;28;20018;-86
2022/04/27 15:11:41;;;;;;;5.18;2.47;;;20.10;58.50;;;;;;4966008;28;20041;-84
2022/04/27 15:14:07;;;;;;;6.15;3.08;;;20.20;58.30;;;;;;4981921;28;20478;-85
2022/04/27 15:16:35;;;;;;;5.30;2.80;;;20.20;57.20;;;;;;4980950;28;20019;-85
2022/04/27 15:19:14;;;;;;;;;;;;;;;;;;;;;
2022/04/27 15:24:37;;;;;;;;;;;;;;;;;;;;;
2022/04/27 15:27:08;;;;;;;4.28;2.08;;;20.40;59.70;;;;;;4983718;28;20038;-86
2022/04/27 15:29:41;;;;;;;4.88;1.90;;;20.50;59.00;;;;;;4966021;28;20046;-87
2022/04/27 15:32:12;;;;;;;3.60;1.63;;;20.50;59.00;;;;;;4981244;28;20415;-88
2022/04/27 15:34:46;;;;;;;;;;;20.50;59.60;;;;;;4979529;28;20053;-87
2022/04/27 15:37:21;;;;;;;3.83;1.80;;;20.50;60.20;;;;;;4981572;28;19914;-87
2022/04/27 15:39:49;;;;;;;3.78;1.80;;;20.50;59.70;;;;;;4963526;28;20038;-87
2022/04/27 15:42:21;;;;;;;4.93;1.67;;;20.40;59.70;;;;;;4981647;28;20478;-87
2022/04/27 15:45:00;;;;;;;3.72;1.60;;;20.40;60.00;;;;;;4981954;28;20049;-88
2022/04/27 15:47:36;;;;;;;6.30;2.00;;;20.40;60.30;;;;;;4964136;28;20031;-87
2022/04/27 15:50:05;;;;;;;4.30;1.75;;;20.40;60.50;;;;;;4979846;28;20022;-88
2022/04/27 15:52:31;;;;;;;6.68;1.77;;;20.40;60.50;;;;;;4981579;28;20034;-86
2022/04/27 15:54:58;;;;;;;4.07;1.55;;;20.40;60.80;;;;;;4981227;28;20042;-86
2022/04/27 15:57:27;;;;;;;4.55;1.65;;;20.40;60.70;;;;;;4982126;28;20098;-88
2022/04/27 15:59:53;;;;;;;2.35;1.50;;;20.40;60.70;;;;;;4981831;28;20021;-87
2022/04/27 16:02:19;;;;;;;5.28;1.80;;;20.40;60.90;;;;;;4981072;28;20018;-86
2022/04/27 16:04:59;;;;;;;5.35;1.83;;;20.40;60.70;;;;;;4981848;28;20454;-89
2022/04/27 16:07:27;;;;;;;5.85;1.60;;;20.30;59.70;;;;;;4961900;28;20034;-89
2022/04/27 16:09:59;;;;;;;5.18;1.63;;;20.30;59.80;;;;;;4964757;28;20034;-84
2022/04/27 16:13:04;;;;;;;;;;;;;;;;;;;;;
2022/04/27 16:15:46;;;;;;;4.40;1.63;;;20.20;59.00;;;;;;4997991;28;20034;-90
2022/04/27 16:18:51;;;;;;;5.18;1.95;;;20.10;59.40;;;;;;4983869;28;20026;-89
2022/04/27 16:24:47;;;;;;;6.25;2.40;;;20.00;60.80;;;;;;5001224;28;20038;-91
2022/04/27 16:27:33;;;;;;;;;;;;;;;;;;;;;
2022/04/27 16:30:20;;;;;;;5.47;2.03;;;20.10;60.80;;;;;;4997394;28;20139;-90
2022/04/27 16:36:26;;;;;;;5.20;2.05;;;20.20;60.70;;;;;;4982692;28;20037;-90
2022/04/27 16:39:27;;;;;;;;;;;;;;;;;;;;;
2022/04/27 16:46:16;;;;;;;;;;;;;;;;;;;;;
2022/04/27 16:49:17;;;;;;;;;;;;;;;;;;;;;
2022/04/27 16:51:52;;;;;;;6.63;2.35;;;20.50;60.20;;;;;;5013709;28;20057;-91
2022/04/27 17:01:23;;;;;;;8.63;2.63;;;20.40;60.20;;;;;;4920786;29;20040;-95
2022/04/27 17:07:22;;;;;;;6.05;2.50;;;20.30;60.20;;;;;;4987946;28;20038;-90
2022/04/27 17:14:11;;;;;;;;;;;;;;;;;;;;;
2022/04/27 17:28:06;;;;;;;5.47;2.67;;;20.00;62.80;;;;;;4826906;29;20041;-96
2022/04/27 17:37:56;;;;;;;;;;;;;;;;;;;;;
2022/04/27 17:44:49;;;;;;;;;;;;;;;;;;;;;
2022/04/27 18:02:58;;;;;;;6.88;2.88;;;18.70;65.40;;;;;;4747337;30;20102;-96
2022/04/27 18:06:07;;;;;;;;;;;;;;;;;;;;;
2022/04/27 18:09:31;;;;;;;8.68;2.42;;;18.50;65.30;;;;;;4834585;29;20189;-93
2022/04/27 18:13:04;;;;;;;6.40;2.65;;;18.40;65.20;;;;;;4848782;29;20041;-96
2022/04/27 18:19:39;;;;;;;6.40;2.25;;;18.30;65.60;;;;;;4846997;29;20038;-93
2022/04/27 18:22:47;;;;;;;;;;;;;;;;;;;;;
2022/04/27 18:28:48;;;;;;;;;;;;;;;;;;;;;
2022/04/27 18:32:19;;;;;;;;;;;;;;;;;;;;;
2022/04/27 18:35:29;;;;;;;;;;;;;;;;;;;;;
2022/04/27 18:42:27;;;;;;;;;;;;;;;;;;;;;
2022/04/27 18:52:13;;;;;;;9.07;2.75;;;17.40;66.80;;;;;;4989798;28;20180;-92
2022/04/27 18:55:20;;;;;;;;;;;;;;;;;;;;;
2022/04/27 18:58:45;;;;;;;;;;;;;;;;;;;;;
2022/04/27 19:08:01;;;;;;;7.70;2.40;;;17.10;67.20;;;;;;4964246;28;20479;-93
2022/04/27 19:11:27;;;;;;;;;;;;;;;;;;;;;
2022/04/27 19:14:06;;;;;;;;;;;;;;;;;;;;;
2022/04/27 19:16:47;;;;;;;8.45;2.70;;;16.90;67.40;;;;;;4982997;28;20090;-95
2022/04/27 19:30:32;;;;;;;;;;;;;;;;;;;;;
2022/04/27 19:34:09;;;;;;;;;;;;;;;;;;;;;
2022/04/27 19:36:54;;;;;;;;;;;;;;;;;;;;;
2022/04/27 19:42:53;;;;;;;8.43;2.75;;;16.40;68.80;;;;;;4935492;29;20503;-95
2022/04/27 19:48:50;;;;;;;9.45;4.10;;;16.30;69.10;;;;;;4988775;28;20089;-95
2022/04/27 19:52:07;;;;;;;;;;;;;;;;;;;;;
2022/04/27 19:54:56;;;;;;;8.13;2.97;;;16.20;69.50;;;;;;4940492;28;20123;-96
2022/04/27 20:05:44;;;;;;;;;;;;;;;;;;;;;
2022/04/27 20:12:42;;;;;;;;;;;;;;;;;;;;;
